AEE214 LGAV-LGRP
Flight info
| Callsign | AEE214 |
|---|---|
| Flight time | 0h 34m |
| Altitude | 25000 |
| Route | KEA UL995 CODIC |
| Aircraft | A21N/M-SDE2E3FGHIJ1RWXY/LB1 |
Departure
| Time | 2026-05-07 15:27 |
|---|---|
| Airport | Athens Eleftherios Venizelos International Airport (LGAV) |
Arrival
| Time | 2026-05-07 16:02 |
|---|---|
| Airport | Rhodes International Airport "Diagoras" (LGRP) |
| Time | Latitude | Longitude | Altitude | Speed | Heading |
|---|---|---|---|---|---|
| 2026-05-07 14:44 | 37.94143 | 23.95342 | 306 ft | 0 kts | 217° |
| 2026-05-07 15:16 | 37.94148 | 23.95346 | 307 ft | 2 kts | 217° |
| 2026-05-07 15:16 | 37.94164 | 23.95361 | 308 ft | 3 kts | 217° |
| 2026-05-07 15:17 | 37.94180 | 23.95377 | 307 ft | 3 kts | 219° |
| 2026-05-07 15:17 | 37.94196 | 23.95393 | 306 ft | 3 kts | 214° |
| 2026-05-07 15:17 | 37.94212 | 23.95404 | 308 ft | 3 kts | 188° |
| 2026-05-07 15:17 | 37.94223 | 23.95404 | 306 ft | 2 kts | 130° |
| 2026-05-07 15:18 | 37.94230 | 23.95392 | 306 ft | 3 kts | 127° |
| 2026-05-07 15:18 | 37.94238 | 23.95379 | 306 ft | 1 kts | 127° |
| 2026-05-07 15:18 | 37.94238 | 23.95378 | 306 ft | 0 kts | 127° |
| 2026-05-07 15:21 | 37.94232 | 23.95388 | 306 ft | 3 kts | 127° |
| 2026-05-07 15:21 | 37.94211 | 23.95423 | 307 ft | 6 kts | 127° |
| 2026-05-07 15:22 | 37.94181 | 23.95474 | 306 ft | 8 kts | 127° |
| 2026-05-07 15:22 | 37.94145 | 23.95538 | 305 ft | 10 kts | 120° |
| 2026-05-07 15:22 | 37.94161 | 23.95622 | 307 ft | 12 kts | 43° |
| 2026-05-07 15:22 | 37.94232 | 23.95691 | 306 ft | 14 kts | 37° |
| 2026-05-07 15:23 | 37.94313 | 23.95768 | 306 ft | 14 kts | 37° |
| 2026-05-07 15:23 | 37.94368 | 23.95840 | 305 ft | 12 kts | 79° |
| 2026-05-07 15:23 | 37.94358 | 23.95948 | 304 ft | 14 kts | 46° |
| 2026-05-07 15:23 | 37.94438 | 23.96026 | 306 ft | 16 kts | 39° |
| 2026-05-07 15:24 | 37.94528 | 23.96117 | 306 ft | 17 kts | 38° |
| 2026-05-07 15:24 | 37.94631 | 23.96211 | 304 ft | 19 kts | 37° |
| 2026-05-07 15:24 | 37.94743 | 23.96317 | 305 ft | 21 kts | 37° |
| 2026-05-07 15:24 | 37.94864 | 23.96432 | 306 ft | 22 kts | 37° |
| 2026-05-07 15:25 | 37.94993 | 23.96554 | 308 ft | 24 kts | 37° |
| 2026-05-07 15:25 | 37.95127 | 23.96683 | 310 ft | 20 kts | 37° |
| 2026-05-07 15:25 | 37.95221 | 23.96773 | 309 ft | 18 kts | 37° |
| 2026-05-07 15:25 | 37.95307 | 23.96866 | 309 ft | 14 kts | 82° |
| 2026-05-07 15:26 | 37.95268 | 23.96952 | 312 ft | 8 kts | 128° |
| 2026-05-07 15:26 | 37.95228 | 23.97017 | 315 ft | 11 kts | 128° |
| 2026-05-07 15:26 | 37.95149 | 23.96984 | 315 ft | 24 kts | 217° |
| 2026-05-07 15:26 | 37.94784 | 23.96637 | 306 ft | 106 kts | 218° |
| 2026-05-07 15:27 | 37.94009 | 23.95896 | 340 ft | 161 kts | 218° |
| 2026-05-07 15:27 | 37.93149 | 23.95036 | 1052 ft | 157 kts | 216° |
| 2026-05-07 15:27 | 37.92204 | 23.94307 | 1776 ft | 160 kts | 206° |
| 2026-05-07 15:27 | 37.91170 | 23.93679 | 2370 ft | 173 kts | 203° |
| 2026-05-07 15:28 | 37.90015 | 23.92991 | 2908 ft | 191 kts | 207° |
| 2026-05-07 15:28 | 37.88799 | 23.92176 | 3457 ft | 210 kts | 208° |
| 2026-05-07 15:28 | 37.87341 | 23.91489 | 3864 ft | 235 kts | 185° |
| 2026-05-07 15:28 | 37.85753 | 23.91824 | 4835 ft | 234 kts | 156° |
| 2026-05-07 15:29 | 37.84498 | 23.93119 | 5601 ft | 244 kts | 127° |
| 2026-05-07 15:29 | 37.83613 | 23.95067 | 6119 ft | 265 kts | 117° |
| 2026-05-07 15:29 | 37.82762 | 23.97214 | 6732 ft | 279 kts | 117° |
| 2026-05-07 15:29 | 37.81874 | 23.99405 | 7469 ft | 286 kts | 118° |
| 2026-05-07 15:30 | 37.80933 | 24.01660 | 8281 ft | 291 kts | 118° |
| 2026-05-07 15:30 | 37.79970 | 24.03935 | 9114 ft | 295 kts | 119° |
| 2026-05-07 15:30 | 37.78987 | 24.06237 | 9953 ft | 299 kts | 119° |
| 2026-05-07 15:30 | 37.77989 | 24.08559 | 10499 ft | 313 kts | 119° |
| 2026-05-07 15:31 | 37.76912 | 24.11057 | 10817 ft | 333 kts | 119° |
| 2026-05-07 15:31 | 37.75766 | 24.13710 | 11136 ft | 353 kts | 119° |
| 2026-05-07 15:31 | 37.74571 | 24.16465 | 11574 ft | 366 kts | 119° |
| 2026-05-07 15:31 | 37.73336 | 24.19316 | 12254 ft | 372 kts | 119° |
| 2026-05-07 15:32 | 37.72083 | 24.22208 | 12974 ft | 378 kts | 119° |
| 2026-05-07 15:32 | 37.70811 | 24.25138 | 13675 ft | 383 kts | 119° |
| 2026-05-07 15:32 | 37.69513 | 24.28118 | 14332 ft | 389 kts | 120° |
| 2026-05-07 15:32 | 37.68198 | 24.31138 | 14982 ft | 394 kts | 120° |
| 2026-05-07 15:33 | 37.66968 | 24.34222 | 15631 ft | 399 kts | 115° |
| 2026-05-07 15:33 | 37.65855 | 24.37464 | 16286 ft | 404 kts | 114° |
| 2026-05-07 15:33 | 37.64749 | 24.40748 | 16949 ft | 408 kts | 114° |
| 2026-05-07 15:33 | 37.63626 | 24.44073 | 17602 ft | 412 kts | 114° |
| 2026-05-07 15:34 | 37.62506 | 24.47377 | 18235 ft | 417 kts | 114° |
| 2026-05-07 15:34 | 37.61354 | 24.50754 | 18811 ft | 421 kts | 115° |
| 2026-05-07 15:34 | 37.60182 | 24.54170 | 19364 ft | 424 kts | 114° |
| 2026-05-07 15:34 | 37.59001 | 24.57620 | 19935 ft | 427 kts | 114° |
| 2026-05-07 15:35 | 37.57831 | 24.61046 | 20486 ft | 431 kts | 114° |
| 2026-05-07 15:35 | 37.56649 | 24.64509 | 21034 ft | 434 kts | 114° |
| 2026-05-07 15:35 | 37.55441 | 24.68030 | 21579 ft | 438 kts | 114° |
| 2026-05-07 15:35 | 37.54222 | 24.71580 | 22138 ft | 441 kts | 114° |
| 2026-05-07 15:36 | 37.53009 | 24.75110 | 22644 ft | 444 kts | 113° |
| 2026-05-07 15:36 | 37.51773 | 24.78699 | 23169 ft | 448 kts | 113° |
| 2026-05-07 15:36 | 37.50517 | 24.82334 | 23680 ft | 451 kts | 113° |
| 2026-05-07 15:36 | 37.49271 | 24.85936 | 24090 ft | 455 kts | 113° |
| 2026-05-07 15:37 | 37.47988 | 24.89649 | 24497 ft | 459 kts | 113° |
| 2026-05-07 15:37 | 37.46725 | 24.93302 | 24888 ft | 463 kts | 113° |
| 2026-05-07 15:37 | 37.45425 | 24.97042 | 25293 ft | 466 kts | 113° |
| 2026-05-07 15:37 | 37.44118 | 25.00803 | 25673 ft | 470 kts | 113° |
| 2026-05-07 15:38 | 37.42813 | 25.04557 | 26012 ft | 475 kts | 114° |
| 2026-05-07 15:38 | 37.41473 | 25.08395 | 26365 ft | 479 kts | 114° |
| 2026-05-07 15:38 | 37.40128 | 25.12258 | 26724 ft | 482 kts | 113° |
| 2026-05-07 15:38 | 37.38790 | 25.16103 | 27079 ft | 486 kts | 114° |
| 2026-05-07 15:39 | 37.37415 | 25.20043 | 27435 ft | 490 kts | 114° |
| 2026-05-07 15:39 | 37.36055 | 25.23935 | 27780 ft | 493 kts | 114° |
| 2026-05-07 15:39 | 37.34664 | 25.27908 | 28146 ft | 496 kts | 114° |
| 2026-05-07 15:39 | 37.33266 | 25.31884 | 28585 ft | 497 kts | 114° |
| 2026-05-07 15:40 | 37.31879 | 25.35826 | 29003 ft | 498 kts | 113° |
| 2026-05-07 15:40 | 37.30473 | 25.39816 | 29402 ft | 499 kts | 113° |
| 2026-05-07 15:40 | 37.29062 | 25.43814 | 29824 ft | 500 kts | 113° |
| 2026-05-07 15:40 | 37.27644 | 25.47842 | 30239 ft | 501 kts | 113° |
| 2026-05-07 15:41 | 37.26247 | 25.51799 | 30587 ft | 501 kts | 113° |
| 2026-05-07 15:41 | 37.24833 | 25.55810 | 30936 ft | 501 kts | 113° |
| 2026-05-07 15:41 | 37.23405 | 25.59842 | 31145 ft | 501 kts | 114° |
| 2026-05-07 15:41 | 37.22000 | 25.63800 | 31172 ft | 499 kts | 114° |
| 2026-05-07 15:42 | 37.19154 | 25.71793 | 31150 ft | 501 kts | 113° |
| 2026-05-07 15:42 | 37.16320 | 25.79760 | 31144 ft | 501 kts | 113° |
| 2026-05-07 15:43 | 37.13477 | 25.87734 | 31145 ft | 501 kts | 113° |
| 2026-05-07 15:43 | 37.10604 | 25.95725 | 31144 ft | 501 kts | 113° |
| 2026-05-07 15:44 | 37.07754 | 26.03652 | 31144 ft | 501 kts | 113° |
| 2026-05-07 15:44 | 37.04889 | 26.11614 | 31144 ft | 501 kts | 113° |
| 2026-05-07 15:45 | 37.02028 | 26.19543 | 31147 ft | 501 kts | 113° |
| 2026-05-07 15:45 | 36.99161 | 26.27467 | 31151 ft | 501 kts | 113° |
| 2026-05-07 15:46 | 36.94864 | 26.39314 | 31144 ft | 497 kts | 113° |
| 2026-05-07 15:47 | 36.91989 | 26.47207 | 31147 ft | 497 kts | 113° |
| 2026-05-07 15:47 | 36.89130 | 26.55048 | 31148 ft | 497 kts | 113° |
| 2026-05-07 15:48 | 36.86268 | 26.62872 | 31147 ft | 496 kts | 113° |
| 2026-05-07 15:48 | 36.83405 | 26.70675 | 31085 ft | 492 kts | 113° |
| 2026-05-07 15:48 | 36.81978 | 26.74551 | 30342 ft | 491 kts | 113° |
| 2026-05-07 15:49 | 36.80542 | 26.78454 | 29467 ft | 491 kts | 113° |
| 2026-05-07 15:49 | 36.79120 | 26.82316 | 28366 ft | 495 kts | 113° |
| 2026-05-07 15:49 | 36.77671 | 26.86245 | 27344 ft | 497 kts | 114° |
| 2026-05-07 15:49 | 36.76234 | 26.90139 | 26365 ft | 498 kts | 114° |
| 2026-05-07 15:50 | 36.74779 | 26.94070 | 25570 ft | 494 kts | 114° |
| 2026-05-07 15:50 | 36.73353 | 26.97923 | 24690 ft | 492 kts | 115° |
| 2026-05-07 15:50 | 36.71917 | 27.01794 | 23946 ft | 486 kts | 115° |
| 2026-05-07 15:50 | 36.70500 | 27.05602 | 23168 ft | 480 kts | 115° |
| 2026-05-07 15:51 | 36.69118 | 27.09319 | 22319 ft | 474 kts | 115° |
| 2026-05-07 15:51 | 36.67728 | 27.13065 | 21199 ft | 475 kts | 114° |
| 2026-05-07 15:51 | 36.66412 | 27.16795 | 20276 ft | 473 kts | 113° |
| 2026-05-07 15:51 | 36.65102 | 27.20537 | 19413 ft | 468 kts | 113° |
| 2026-05-07 15:52 | 36.63790 | 27.24291 | 18314 ft | 470 kts | 113° |
| 2026-05-07 15:52 | 36.62498 | 27.27984 | 17304 ft | 467 kts | 113° |
| 2026-05-07 15:52 | 36.61199 | 27.31684 | 16445 ft | 460 kts | 113° |
| 2026-05-07 15:52 | 36.59936 | 27.35269 | 15652 ft | 453 kts | 112° |
| 2026-05-07 15:53 | 36.58673 | 27.38854 | 14965 ft | 448 kts | 112° |
| 2026-05-07 15:53 | 36.57438 | 27.42355 | 14030 ft | 435 kts | 112° |
| 2026-05-07 15:53 | 36.56246 | 27.45743 | 12851 ft | 428 kts | 111° |
| 2026-05-07 15:53 | 36.55248 | 27.49211 | 11950 ft | 422 kts | 106° |
| 2026-05-07 15:54 | 36.54363 | 27.52684 | 11256 ft | 415 kts | 106° |
| 2026-05-07 15:54 | 36.53509 | 27.56042 | 10598 ft | 409 kts | 106° |
| 2026-05-07 15:54 | 36.52650 | 27.59401 | 9926 ft | 402 kts | 106° |
| 2026-05-07 15:54 | 36.51810 | 27.62673 | 9405 ft | 390 kts | 106° |
| 2026-05-07 15:55 | 36.50997 | 27.65842 | 8980 ft | 377 kts | 106° |
| 2026-05-07 15:55 | 36.50305 | 27.68893 | 8498 ft | 365 kts | 100° |
| 2026-05-07 15:55 | 36.49907 | 27.71995 | 7888 ft | 359 kts | 96° |
| 2026-05-07 15:55 | 36.49598 | 27.75059 | 7272 ft | 354 kts | 95° |
| 2026-05-07 15:56 | 36.49314 | 27.78053 | 6429 ft | 345 kts | 95° |
| 2026-05-07 15:56 | 36.49044 | 27.80973 | 5447 ft | 341 kts | 95° |
| 2026-05-07 15:56 | 36.48777 | 27.83908 | 4707 ft | 340 kts | 95° |
| 2026-05-07 15:56 | 36.48517 | 27.86806 | 3973 ft | 339 kts | 95° |
| 2026-05-07 15:57 | 36.48266 | 27.89697 | 3314 ft | 337 kts | 95° |
| 2026-05-07 15:57 | 36.48029 | 27.92548 | 2977 ft | 324 kts | 95° |
| 2026-05-07 15:57 | 36.47809 | 27.95291 | 2752 ft | 310 kts | 95° |
| 2026-05-07 15:57 | 36.47603 | 27.97880 | 2564 ft | 297 kts | 95° |
| 2026-05-07 15:58 | 36.47404 | 28.00390 | 2397 ft | 284 kts | 95° |
| 2026-05-07 15:58 | 36.47223 | 28.02754 | 2187 ft | 270 kts | 93° |
| 2026-05-07 15:58 | 36.47163 | 28.05045 | 1889 ft | 259 kts | 91° |
| 2026-05-07 15:58 | 36.47147 | 28.07239 | 1724 ft | 248 kts | 90° |
| 2026-05-07 15:59 | 36.47124 | 28.09332 | 1568 ft | 235 kts | 90° |
| 2026-05-07 15:59 | 36.46895 | 28.11251 | 1446 ft | 218 kts | 115° |
| 2026-05-07 15:59 | 36.46039 | 28.12572 | 1453 ft | 180 kts | 149° |
| 2026-05-07 15:59 | 36.44986 | 28.13262 | 1262 ft | 170 kts | 156° |
| 2026-05-07 16:00 | 36.43989 | 28.13813 | 1089 ft | 146 kts | 166° |
| 2026-05-07 16:00 | 36.43027 | 28.13905 | 892 ft | 138 kts | 193° |
| 2026-05-07 16:00 | 36.42159 | 28.13459 | 657 ft | 134 kts | 218° |
| 2026-05-07 16:00 | 36.41657 | 28.12542 | 484 ft | 128 kts | 252° |
| 2026-05-07 16:01 | 36.41377 | 28.11498 | 255 ft | 127 kts | 250° |
| 2026-05-07 16:01 | 36.41081 | 28.10478 | 93 ft | 127 kts | 249° |
| 2026-05-07 16:01 | 36.40789 | 28.09479 | 36 ft | 114 kts | 249° |
| 2026-05-07 16:01 | 36.40582 | 28.08771 | 34 ft | 58 kts | 251° |
| 2026-05-07 16:02 | 36.40494 | 28.08457 | 33 ft | 35 kts | 251° |
| 2026-05-07 16:02 | 36.40408 | 28.08170 | 33 ft | 36 kts | 249° |
| 2026-05-07 16:02 | 36.40324 | 28.08002 | 34 ft | 21 kts | 220° |
| 2026-05-07 16:02 | 36.40211 | 28.07884 | 33 ft | 20 kts | 220° |
| 2026-05-07 16:03 | 36.40136 | 28.07866 | 33 ft | 15 kts | 83° |
| 2026-05-07 16:03 | 36.40150 | 28.07920 | 33 ft | 3 kts | 70° |
| 2026-05-07 16:03 | 36.40161 | 28.07957 | 33 ft | 6 kts | 70° |
| 2026-05-07 16:03 | 36.40177 | 28.08013 | 33 ft | 8 kts | 70° |
| 2026-05-07 16:04 | 36.40199 | 28.08089 | 34 ft | 11 kts | 70° |
| 2026-05-07 16:04 | 36.40227 | 28.08184 | 34 ft | 13 kts | 70° |
| 2026-05-07 16:04 | 36.40260 | 28.08297 | 34 ft | 15 kts | 69° |
| 2026-05-07 16:04 | 36.40299 | 28.08425 | 34 ft | 17 kts | 69° |
| 2026-05-07 16:05 | 36.40340 | 28.08566 | 33 ft | 18 kts | 71° |
| 2026-05-07 16:05 | 36.40382 | 28.08718 | 33 ft | 19 kts | 70° |
| 2026-05-07 16:05 | 36.40403 | 28.08862 | 34 ft | 8 kts | 92° |
| 2026-05-07 16:05 | 36.40354 | 28.08899 | 33 ft | 9 kts | 160° |
| 2026-05-07 16:06 | 36.40314 | 28.08916 | 33 ft | 0 kts | 159° |